Time,TemperatureF,DewpointF,PressureIn,WindDirection,WindDirectionDegrees,WindSpeedMPH,WindSpeedGustMPH,Humidity,HourlyPrecipIn,Conditions,Clouds,dailyrainin,SolarRadiationWatts/m^2,SoftwareType,DateUTC
2013-12-07 00:02:00,-6.0,-9.0,-100.00,NW,318,5.0,9.0,85,0.00,,,0.00,0.000000,,2013-12-07 06:02:00,
2013-12-07 00:11:00,-7.0,-10.0,-100.00,NW,308,3.0,8.0,87,0.00,,,0.00,0.000000,,2013-12-07 06:11:00,
2013-12-07 00:43:00,-7.0,-10.0,-100.00,NW,308,3.0,8.0,87,0.00,,,0.00,0.000000,,2013-12-07 06:43:00,
2013-12-07 00:53:00,-7.0,-10.0,-100.00,NW,308,3.0,8.0,87,0.00,,,0.00,0.000000,,2013-12-07 06:53:00,
2013-12-07 01:02:00,-7.0,-10.0,-100.00,NW,308,3.0,8.0,87,0.00,,,0.00,0.000000,,2013-12-07 07:02:00,
2013-12-07 01:11:00,-10.0,-12.0,-100.00,East,96,0.0,5.0,90,0.00,,,0.00,0.000000,,2013-12-07 07:11:00,
2013-12-07 01:42:00,-10.0,-12.0,-100.00,East,96,0.0,5.0,90,0.00,,,0.00,0.000000,,2013-12-07 07:42:00,
2013-12-07 01:53:00,-10.0,-12.0,-100.00,East,96,0.0,5.0,90,0.00,,,0.00,0.000000,,2013-12-07 07:53:00,
2013-12-07 02:02:00,-10.0,-12.0,-100.00,East,96,0.0,5.0,90,0.00,,,0.00,0.000000,,2013-12-07 08:02:00,
2013-12-07 02:11:00,-10.0,-12.0,-100.00,NNE,29,0.0,0.0,90,0.00,,,0.00,0.000000,,2013-12-07 08:11:00,
2013-12-07 02:42:00,-10.0,-12.0,-100.00,NNE,29,0.0,0.0,90,0.00,,,0.00,0.000000,,2013-12-07 08:42:00,
2013-12-07 02:52:00,-10.0,-12.0,-100.00,NNE,29,0.0,0.0,90,0.00,,,0.00,0.000000,,2013-12-07 08:52:00,
2013-12-07 03:02:00,-10.0,-12.0,-100.00,NNE,29,0.0,0.0,90,0.00,,,0.00,0.000000,,2013-12-07 09:02:00,
2013-12-07 03:11:00,-12.0,-14.0,-100.00,NNW,345,0.0,0.0,90,0.00,,,0.00,0.000000,,2013-12-07 09:11:00,
2013-12-07 03:44:00,-12.0,-14.0,-100.00,NNW,345,0.0,0.0,90,0.00,,,0.00,0.000000,,2013-12-07 09:44:00,
2013-12-07 03:53:00,-12.0,-14.0,-100.00,NNW,345,0.0,0.0,90,0.00,,,0.00,0.000000,,2013-12-07 09:53:00,
2013-12-07 04:03:00,-12.0,-14.0,-100.00,NNW,345,0.0,0.0,90,0.00,,,0.00,0.000000,,2013-12-07 10:03:00,
2013-12-07 04:11:00,-12.0,-14.0,-100.00,North,354,0.0,0.0,90,0.00,,,0.00,0.000000,,2013-12-07 10:11:00,
2013-12-07 04:43:00,-12.0,-14.0,-100.00,North,354,0.0,0.0,90,0.00,,,0.00,0.000000,,2013-12-07 10:43:00,
2013-12-07 04:53:00,-12.0,-14.0,-100.00,North,354,0.0,0.0,90,0.00,,,0.00,0.000000,,2013-12-07 10:53:00,
2013-12-07 05:02:00,-12.0,-14.0,-100.00,North,354,0.0,0.0,90,0.00,,,0.00,0.000000,,2013-12-07 11:02:00,
2013-12-07 05:11:00,-13.0,-16.0,-100.00,North,355,0.0,1.0,88,0.00,,,0.00,0.000000,,2013-12-07 11:11:00,
2013-12-07 05:42:00,-13.0,-16.0,-100.00,North,355,0.0,1.0,88,0.00,,,0.00,0.000000,,2013-12-07 11:42:00,
2013-12-07 05:52:00,-13.0,-16.0,-100.00,North,355,0.0,1.0,88,0.00,,,0.00,0.000000,,2013-12-07 11:52:00,
2013-12-07 06:02:00,-13.0,-16.0,-100.00,North,355,0.0,1.0,88,0.00,,,0.00,0.000000,,2013-12-07 12:02:00,
2013-12-07 06:11:00,-13.0,-16.0,-100.00,NNW,347,2.0,5.0,88,0.00,,,0.00,0.000000,,2013-12-07 12:11:00,
2013-12-07 06:43:00,-13.0,-16.0,-100.00,NNW,347,2.0,5.0,88,0.00,,,0.00,0.000000,,2013-12-07 12:43:00,
2013-12-07 06:52:00,-13.0,-16.0,-100.00,NNW,347,2.0,5.0,88,0.00,,,0.00,0.000000,,2013-12-07 12:52:00,
2013-12-07 07:02:00,-13.0,-16.0,-100.00,NNW,347,2.0,5.0,88,0.00,,,0.00,0.000000,,2013-12-07 13:02:00,
2013-12-07 07:11:00,-12.0,-14.0,-100.00,SSE,152,1.0,2.0,90,0.00,,,0.00,0.000000,,2013-12-07 13:11:00,
2013-12-07 07:42:00,-12.0,-14.0,-100.00,SSE,152,1.0,2.0,90,0.00,,,0.00,0.000000,,2013-12-07 13:42:00,
2013-12-07 07:52:00,-12.0,-14.0,-100.00,SSE,152,1.0,2.0,90,0.00,,,0.00,0.000000,,2013-12-07 13:52:00,
2013-12-07 08:02:00,-12.0,-14.0,-100.00,SSE,152,1.0,2.0,90,0.00,,,0.00,0.000000,,2013-12-07 14:02:00,
2013-12-07 08:11:00,-11.0,-13.0,-100.00,North,356,1.0,4.0,91,0.00,,,0.00,5.000000,,2013-12-07 14:11:00,
2013-12-07 08:42:00,-11.0,-13.0,-100.00,North,356,1.0,4.0,91,0.00,,,0.00,5.000000,,2013-12-07 14:42:00,
2013-12-07 08:52:00,-11.0,-13.0,-100.00,North,356,1.0,4.0,91,0.00,,,0.00,5.000000,,2013-12-07 14:52:00,
2013-12-07 09:02:00,-11.0,-13.0,-100.00,North,356,1.0,4.0,91,0.00,,,0.00,5.000000,,2013-12-07 15:02:00,
2013-12-07 09:11:00,-8.0,-11.0,-100.00,SW,225,2.0,4.0,86,0.00,,,0.00,48.000000,,2013-12-07 15:11:00,
2013-12-07 09:43:00,-8.0,-11.0,-100.00,SW,225,2.0,4.0,86,0.00,,,0.00,48.000000,,2013-12-07 15:43:00,
2013-12-07 09:54:00,-8.0,-11.0,-100.00,SW,225,2.0,4.0,86,0.00,,,0.00,48.000000,,2013-12-07 15:54:00,
2013-12-07 10:03:00,-8.0,-11.0,-100.00,SW,225,2.0,4.0,86,0.00,,,0.00,48.000000,,2013-12-07 16:03:00,
2013-12-07 10:11:00,-5.0,-9.0,-100.00,SW,216,2.0,4.0,82,0.00,,,0.00,118.000000,,2013-12-07 16:11:00,
2013-12-07 10:43:00,-5.0,-9.0,-100.00,SW,216,2.0,4.0,82,0.00,,,0.00,118.000000,,2013-12-07 16:43:00,
2013-12-07 10:53:00,-5.0,-9.0,-100.00,SW,216,2.0,4.0,82,0.00,,,0.00,118.000000,,2013-12-07 16:53:00,
2013-12-07 11:02:00,-5.0,-9.0,-100.00,SW,216,2.0,4.0,82,0.00,,,0.00,118.000000,,2013-12-07 17:02:00,
2013-12-07 11:11:00,1.0,-4.0,-100.00,West,272,3.0,5.0,77,0.00,,,0.00,215.000000,,2013-12-07 17:11:00,
2013-12-07 11:43:00,1.0,-4.0,-100.00,West,272,3.0,5.0,77,0.00,,,0.00,215.000000,,2013-12-07 17:43:00,
2013-12-07 11:52:00,1.0,-4.0,-100.00,West,272,3.0,5.0,77,0.00,,,0.00,215.000000,,2013-12-07 17:52:00,
2013-12-07 12:02:00,1.0,-4.0,-100.00,West,272,3.0,5.0,77,0.00,,,0.00,215.000000,,2013-12-07 18:02:00,
2013-12-07 12:11:00,3.0,-5.0,-100.00,South,176,2.0,7.0,70,0.00,,,0.00,335.000000,,2013-12-07 18:11:00,
2013-12-07 12:43:00,3.0,-5.0,-100.00,South,176,2.0,7.0,70,0.00,,,0.00,335.000000,,2013-12-07 18:43:00,
2013-12-07 12:52:00,3.0,-5.0,-100.00,South,176,2.0,7.0,70,0.00,,,0.00,335.000000,,2013-12-07 18:52:00,
2013-12-07 13:02:00,3.0,-5.0,-100.00,South,176,2.0,7.0,70,0.00,,,0.00,335.000000,,2013-12-07 19:02:00,
2013-12-07 13:11:00,5.0,-2.0,-100.00,SSW,212,5.0,9.0,72,0.00,,,0.00,336.000000,,2013-12-07 19:11:00,
2013-12-07 13:42:00,5.0,-2.0,-100.00,SSW,212,5.0,9.0,72,0.00,,,0.00,336.000000,,2013-12-07 19:42:00,
2013-12-07 13:52:00,5.0,-2.0,-100.00,SSW,212,5.0,9.0,72,0.00,,,0.00,336.000000,,2013-12-07 19:52:00,
2013-12-07 14:02:00,5.0,-2.0,-100.00,SSW,212,5.0,9.0,72,0.00,,,0.00,336.000000,,2013-12-07 20:02:00,
2013-12-07 14:11:00,8.0,-1.0,-100.00,NW,311,2.0,8.0,66,0.00,,,0.00,283.000000,,2013-12-07 20:11:00,
2013-12-07 14:42:00,8.0,-1.0,-100.00,NW,311,2.0,8.0,66,0.00,,,0.00,283.000000,,2013-12-07 20:42:00,
2013-12-07 14:53:00,8.0,-1.0,-100.00,NW,311,2.0,8.0,66,0.00,,,0.00,283.000000,,2013-12-07 20:53:00,
2013-12-07 15:02:00,8.0,-1.0,-100.00,NW,311,2.0,8.0,66,0.00,,,0.00,283.000000,,2013-12-07 21:02:00,
2013-12-07 15:11:00,8.0,-2.0,-100.00,SW,230,1.0,6.0,62,0.00,,,0.00,159.000000,,2013-12-07 21:11:00,
2013-12-07 15:43:00,8.0,-2.0,-100.00,SW,230,1.0,6.0,62,0.00,,,0.00,159.000000,,2013-12-07 21:43:00,
2013-12-07 15:53:00,8.0,-2.0,-100.00,SW,230,1.0,6.0,62,0.00,,,0.00,159.000000,,2013-12-07 21:53:00,
2013-12-07 16:03:00,8.0,-2.0,-100.00,SW,230,1.0,6.0,62,0.00,,,0.00,159.000000,,2013-12-07 22:03:00,
2013-12-07 16:11:00,4.0,-3.0,-100.00,NNE,27,6.0,9.0,73,0.00,,,0.00,85.000000,,2013-12-07 22:11:00,
2013-12-07 16:43:00,4.0,-3.0,-100.00,NNE,27,6.0,9.0,73,0.00,,,0.00,85.000000,,2013-12-07 22:43:00,
2013-12-07 16:53:00,4.0,-3.0,-100.00,NNE,27,6.0,9.0,73,0.00,,,0.00,85.000000,,2013-12-07 22:53:00,
2013-12-07 17:03:00,4.0,-3.0,-100.00,NNE,27,6.0,9.0,73,0.00,,,0.00,85.000000,,2013-12-07 23:03:00,
2013-12-07 17:11:00,3.0,-3.0,-100.00,NNE,33,6.0,10.0,76,0.00,,,0.00,12.000000,,2013-12-07 23:11:00,
2013-12-07 17:43:00,3.0,-3.0,-100.00,NNE,33,6.0,10.0,76,0.00,,,0.00,12.000000,,2013-12-07 23:43:00,
2013-12-07 17:52:00,3.0,-3.0,-100.00,NNE,33,6.0,10.0,76,0.00,,,0.00,12.000000,,2013-12-07 23:52:00,
2013-12-07 18:02:00,3.0,-3.0,-100.00,NNE,33,6.0,10.0,76,0.00,,,0.00,12.000000,,2013-12-08 00:02:00,
2013-12-07 18:11:00,3.0,-3.0,-100.00,NE,35,7.0,11.0,77,0.00,,,0.00,0.000000,,2013-12-08 00:11:00,
2013-12-07 18:42:00,3.0,-3.0,-100.00,NE,35,7.0,11.0,77,0.00,,,0.00,0.000000,,2013-12-08 00:42:00,
2013-12-07 18:52:00,3.0,-3.0,-100.00,NE,35,7.0,11.0,77,0.00,,,0.00,0.000000,,2013-12-08 00:52:00,
2013-12-07 19:02:00,3.0,-3.0,-100.00,NE,35,7.0,11.0,77,0.00,,,0.00,0.000000,,2013-12-08 01:02:00,
2013-12-07 19:11:00,4.0,-1.0,-100.00,ENE,64,5.0,10.0,79,0.00,,,0.00,0.000000,,2013-12-08 01:11:00,
2013-12-07 19:42:00,4.0,-1.0,-100.00,ENE,64,5.0,10.0,79,0.00,,,0.00,0.000000,,2013-12-08 01:42:00,
2013-12-07 19:52:00,4.0,-1.0,-100.00,ENE,64,5.0,10.0,79,0.00,,,0.00,0.000000,,2013-12-08 01:52:00,
2013-12-07 20:02:00,4.0,-1.0,-100.00,ENE,64,5.0,10.0,79,0.00,,,0.00,0.000000,,2013-12-08 02:02:00,
2013-12-07 20:11:00,4.0,0.0,-100.00,ENE,68,5.0,9.0,83,0.00,,,0.00,0.000000,,2013-12-08 02:11:00,
2013-12-07 20:43:00,4.0,0.0,-100.00,ENE,68,5.0,9.0,83,0.00,,,0.00,0.000000,,2013-12-08 02:43:00,
2013-12-07 20:52:00,4.0,0.0,-100.00,ENE,68,5.0,9.0,83,0.00,,,0.00,0.000000,,2013-12-08 02:52:00,
2013-12-07 21:02:00,4.0,0.0,-100.00,ENE,68,5.0,9.0,83,0.00,,,0.00,0.000000,,2013-12-08 03:02:00,
2013-12-07 21:11:00,5.0,2.0,-100.00,SE,142,3.0,10.0,88,0.00,,,0.00,0.000000,,2013-12-08 03:11:00,
2013-12-07 21:44:00,5.0,2.0,-100.00,SE,142,3.0,10.0,88,0.00,,,0.00,0.000000,,2013-12-08 03:44:00,
2013-12-07 21:54:00,5.0,2.0,-100.00,SE,142,3.0,10.0,88,0.00,,,0.00,0.000000,,2013-12-08 03:54:00,
2013-12-07 22:02:00,-999.0,-99.9,-100.00,SE,142,3.0,10.0,-999,0.00,,,0.00,0.000000,,2013-12-08 04:02:00,
2013-12-07 22:11:00,6.0,3.0,-100.00,ESE,110,4.0,9.0,89,0.00,,,0.00,0.000000,,2013-12-08 04:11:00,
2013-12-07 22:43:00,6.0,3.0,-100.00,ESE,110,4.0,9.0,89,0.00,,,0.00,0.000000,,2013-12-08 04:43:00,
2013-12-07 22:53:00,6.0,3.0,-100.00,ESE,110,4.0,9.0,89,0.00,,,0.00,0.000000,,2013-12-08 04:53:00,
2013-12-07 23:03:00,6.0,3.0,-100.00,ESE,110,4.0,9.0,89,0.00,,,0.00,0.000000,,2013-12-08 05:03:00,
2013-12-07 23:11:00,7.0,4.0,-100.00,SE,139,5.0,10.0,89,0.00,,,0.00,0.000000,,2013-12-08 05:11:00,
2013-12-07 23:43:00,7.0,4.0,-100.00,SE,139,5.0,10.0,89,0.00,,,0.00,0.000000,,2013-12-08 05:43:00,
2013-12-07 23:53:00,7.0,4.0,-100.00,SE,139,5.0,10.0,89,0.00,,,0.00,0.000000,,2013-12-08 05:53:00,